createdAt,value
2022-12-24T00:00:41.339Z,72.55
2022-12-24T00:01:41.225Z,72.55
2022-12-24T00:02:41.301Z,72.68
2022-12-24T00:03:41.398Z,72.65
2022-12-24T00:04:41.183Z,72.58
2022-12-24T00:05:41.174Z,72.55
2022-12-24T00:06:41.285Z,72.47
2022-12-24T00:07:41.156Z,72.44
2022-12-24T00:08:41.141Z,72.44
2022-12-24T00:09:41.131Z,72.55
2022-12-24T00:10:41.237Z,72.55
2022-12-24T00:11:41.096Z,72.58
2022-12-24T00:12:41.091Z,72.58
2022-12-24T00:13:41.073Z,72.55
2022-12-24T00:14:41.054Z,72.58
2022-12-24T00:15:41.038Z,72.58
2022-12-24T00:16:41.091Z,72.58
2022-12-24T00:17:41.017Z,72.58
2022-12-24T00:18:45.918Z,72.68
2022-12-24T00:19:40.983Z,72.58
2022-12-24T00:20:40.976Z,72.68
2022-12-24T00:21:40.960Z,72.68
2022-12-24T00:22:40.971Z,72.58
2022-12-24T00:23:40.939Z,72.78
2022-12-24T00:24:40.922Z,72.68
2022-12-24T00:25:40.928Z,72.68
2022-12-24T00:26:40.895Z,72.68
2022-12-24T00:27:40.883Z,72.68
2022-12-24T00:28:40.864Z,72.58
2022-12-24T00:29:40.860Z,72.68
2022-12-24T00:30:40.903Z,72.58
2022-12-24T00:31:40.832Z,72.68
2022-12-24T00:32:40.813Z,72.58
2022-12-24T00:33:40.805Z,72.68
2022-12-24T00:34:40.787Z,72.68
2022-12-24T00:35:40.799Z,72.68
2022-12-24T00:36:40.769Z,72.68
2022-12-24T00:37:40.758Z,72.68
2022-12-24T00:38:40.752Z,72.68
2022-12-24T00:39:40.720Z,72.58
2022-12-24T00:40:40.708Z,72.58
2022-12-24T00:41:40.694Z,72.58
2022-12-24T00:42:40.676Z,72.44
2022-12-24T00:43:40.663Z,72.47
2022-12-24T00:44:40.648Z,72.58
2022-12-24T00:45:40.639Z,72.58
2022-12-24T00:46:40.716Z,72.58
2022-12-24T00:47:40.626Z,72.55
2022-12-24T00:48:40.605Z,72.58
2022-12-24T00:49:40.593Z,72.65
2022-12-24T00:50:40.622Z,72.68
2022-12-24T00:51:40.635Z,72.68
2022-12-24T00:52:40.545Z,72.68
2022-12-24T00:53:40.539Z,72.68
2022-12-24T00:54:40.548Z,72.78
2022-12-24T00:55:40.908Z,72.78
2022-12-24T00:56:40.487Z,72.78
2022-12-24T00:57:40.476Z,72.68
2022-12-24T00:58:40.467Z,72.78
2022-12-24T00:59:40.457Z,72.68
2022-12-24T01:00:40.449Z,72.78
2022-12-24T01:01:40.547Z,72.68
2022-12-24T01:02:40.624Z,72.68
2022-12-24T01:03:40.428Z,72.68
2022-12-24T01:04:40.380Z,72.68
2022-12-24T01:05:40.381Z,72.65
2022-12-24T01:06:40.368Z,72.68
2022-12-24T01:07:40.350Z,72.68
2022-12-24T01:08:40.331Z,72.75
2022-12-24T01:09:40.317Z,72.89
2022-12-24T01:10:40.337Z,72.89
2022-12-24T01:11:40.291Z,72.99
2022-12-24T01:12:40.287Z,72.75
2022-12-24T01:13:40.273Z,73.06
2022-12-24T01:14:40.259Z,73.06
2022-12-24T01:15:40.303Z,73.16
2022-12-24T01:16:40.225Z,73.30
2022-12-24T01:17:40.226Z,73.30
2022-12-24T01:18:40.198Z,73.40
2022-12-24T01:19:40.190Z,73.36
2022-12-24T01:20:40.174Z,73.40
2022-12-24T01:21:40.157Z,73.40
2022-12-24T01:22:40.146Z,73.50
2022-12-24T01:23:40.134Z,73.61
2022-12-24T01:24:40.116Z,73.57
2022-12-24T01:25:40.107Z,73.71
2022-12-24T01:26:40.119Z,73.78
2022-12-24T01:27:40.081Z,73.88
2022-12-24T01:28:40.067Z,73.88
2022-12-24T01:29:40.053Z,74.08
2022-12-24T01:30:40.037Z,74.19
2022-12-24T01:31:40.077Z,74.60
2022-12-24T01:32:40.011Z,75.21
2022-12-24T01:33:40.000Z,75.21
2022-12-24T01:34:39.986Z,75.42
2022-12-24T01:35:39.978Z,75.32
2022-12-24T01:36:39.961Z,75.52
2022-12-24T01:37:39.950Z,75.52
2022-12-24T01:38:39.936Z,75.52
2022-12-24T01:39:39.925Z,75.52
2022-12-24T01:40:39.909Z,75.56
2022-12-24T01:41:39.896Z,75.93
2022-12-24T01:42:39.906Z,75.73
2022-12-24T01:43:39.866Z,75.87
2022-12-24T01:44:39.851Z,75.76
2022-12-24T01:45:39.847Z,76.35
2022-12-24T01:46:39.874Z,76.65
2022-12-24T01:47:39.809Z,76.86
2022-12-24T01:48:39.853Z,77.37
2022-12-24T01:49:39.784Z,78.50
2022-12-24T01:50:39.771Z,78.40
2022-12-24T01:51:39.773Z,77.78
2022-12-24T01:52:39.747Z,77.89
2022-12-24T01:53:39.746Z,77.58
2022-12-24T01:54:39.727Z,78.71
2022-12-24T01:55:39.715Z,78.09
2022-12-24T01:56:39.699Z,78.09
2022-12-24T01:57:39.685Z,79.74
2022-12-24T01:58:39.687Z,79.19
2022-12-24T01:59:39.650Z,78.40
2022-12-24T02:00:39.645Z,80.32
2022-12-24T02:01:39.823Z,81.96
2022-12-24T02:02:39.830Z,81.24
2022-12-24T02:03:39.723Z,79.80
2022-12-24T02:04:39.587Z,80.93
2022-12-24T02:05:39.580Z,80.52
2022-12-24T02:06:39.577Z,81.55
2022-12-24T02:07:39.550Z,82.06
2022-12-24T02:08:39.535Z,81.55
2022-12-24T02:09:39.522Z,82.78
2022-12-24T02:10:39.519Z,81.45
2022-12-24T02:11:39.496Z,81.45
2022-12-24T02:12:39.482Z,81.45
2022-12-24T02:13:39.516Z,82.06
2022-12-24T02:14:39.487Z,82.27
2022-12-24T02:15:39.498Z,83.98
2022-12-24T02:16:39.534Z,85.25
2022-12-24T02:17:39.427Z,86.17
2022-12-24T02:18:39.411Z,83.50
2022-12-24T02:19:39.387Z,83.50
2022-12-24T02:20:39.370Z,82.99
2022-12-24T02:21:39.363Z,84.63
2022-12-24T02:22:39.351Z,84.22
2022-12-24T02:23:39.357Z,83.40
2022-12-24T02:24:39.325Z,83.50
2022-12-24T02:25:39.329Z,83.19
2022-12-24T02:26:39.299Z,82.27
2022-12-24T02:27:39.288Z,82.41
2022-12-24T02:28:39.295Z,81.38
2022-12-24T02:29:39.260Z,81.38
2022-12-24T02:30:39.273Z,81.18
2022-12-24T02:31:39.336Z,80.77
2022-12-24T02:32:39.213Z,80.66
2022-12-24T02:33:39.206Z,80.80
2022-12-24T02:34:39.193Z,80.29
2022-12-24T02:35:39.183Z,79.36
2022-12-24T02:36:39.170Z,79.05
2022-12-24T02:37:39.153Z,78.54
2022-12-24T02:38:39.140Z,78.75
2022-12-24T02:39:39.124Z,79.02
2022-12-24T02:40:39.113Z,79.02
2022-12-24T02:41:39.095Z,78.50
2022-12-24T02:42:39.088Z,78.40
2022-12-24T02:43:39.079Z,78.40
2022-12-24T02:44:39.070Z,78.71
2022-12-24T02:45:39.044Z,78.92
2022-12-24T02:46:39.076Z,78.71
2022-12-24T02:47:39.021Z,78.85
2022-12-24T02:48:39.002Z,78.75
2022-12-24T02:49:38.999Z,78.54
2022-12-24T02:50:38.983Z,78.75
2022-12-24T02:51:38.972Z,78.85
2022-12-24T02:52:38.956Z,78.96
2022-12-24T02:53:38.939Z,78.23
2022-12-24T02:54:38.922Z,78.33
2022-12-24T02:55:38.911Z,77.92
2022-12-24T02:56:38.909Z,78.13
2022-12-24T02:57:38.898Z,78.23
2022-12-24T02:58:38.864Z,78.17
2022-12-24T02:59:38.860Z,78.23
2022-12-24T03:00:38.891Z,78.37
2022-12-24T03:01:39.131Z,77.86
2022-12-24T03:02:38.944Z,77.34
2022-12-24T03:03:38.814Z,77.24
2022-12-24T03:04:38.800Z,77.03
2022-12-24T03:05:38.791Z,76.93
2022-12-24T03:06:38.768Z,76.86
2022-12-24T03:07:38.766Z,76.83
2022-12-24T03:08:38.749Z,76.83
2022-12-24T03:09:38.761Z,76.73
2022-12-24T03:10:38.726Z,76.45
2022-12-24T03:11:38.700Z,76.25
2022-12-24T03:12:38.691Z,76.25
2022-12-24T03:13:38.678Z,76.14
2022-12-24T03:14:38.660Z,76.01
2022-12-24T03:15:38.651Z,75.94
2022-12-24T03:16:38.723Z,75.84
2022-12-24T03:17:38.624Z,75.94
2022-12-24T03:18:38.628Z,75.73
2022-12-24T03:19:38.604Z,75.73
2022-12-24T03:20:38.582Z,75.63
2022-12-24T03:21:38.564Z,75.52
2022-12-24T03:22:38.553Z,75.63
2022-12-24T03:23:38.541Z,75.42
2022-12-24T03:24:38.529Z,75.46
2022-12-24T03:25:38.569Z,75.42
2022-12-24T03:26:38.497Z,75.32
2022-12-24T03:27:38.483Z,75.22
2022-12-24T03:28:38.475Z,75.22
2022-12-24T03:29:38.460Z,75.22
2022-12-24T03:30:38.461Z,75.12
2022-12-24T03:31:38.439Z,75.12
2022-12-24T03:32:38.417Z,75.01
2022-12-24T03:33:38.407Z,75.12
2022-12-24T03:34:38.414Z,75.01
2022-12-24T03:35:38.392Z,74.91
2022-12-24T03:36:38.375Z,74.91
2022-12-24T03:37:38.361Z,75.05
2022-12-24T03:38:38.353Z,75.01
2022-12-24T03:39:38.332Z,75.01
2022-12-24T03:40:38.315Z,75.05
2022-12-24T03:41:38.312Z,75.05
2022-12-24T03:42:38.284Z,75.15
2022-12-24T03:43:38.270Z,75.05
2022-12-24T03:44:38.256Z,75.05
2022-12-24T03:45:38.348Z,74.95
2022-12-24T03:46:38.233Z,74.95
2022-12-24T03:47:38.220Z,74.95
2022-12-24T03:48:38.227Z,74.84
2022-12-24T03:49:38.198Z,74.84
2022-12-24T03:50:38.208Z,74.74
2022-12-24T03:51:38.166Z,74.84
2022-12-24T03:52:38.180Z,74.74
2022-12-24T03:53:38.143Z,74.74
2022-12-24T03:54:38.132Z,74.74
2022-12-24T03:55:38.116Z,74.63
2022-12-24T03:56:38.105Z,74.63
2022-12-24T03:57:38.091Z,74.63
2022-12-24T03:58:38.081Z,74.53
2022-12-24T03:59:38.070Z,74.63
2022-12-24T04:00:38.152Z,74.53
2022-12-24T04:01:38.118Z,74.53
2022-12-24T04:02:38.205Z,74.53
2022-12-24T04:03:38.007Z,74.53
2022-12-24T04:04:38.000Z,74.53
2022-12-24T04:05:38.183Z,74.53
2022-12-24T04:06:37.993Z,74.53
2022-12-24T04:07:37.959Z,74.53
2022-12-24T04:08:37.963Z,74.53
2022-12-24T04:09:37.933Z,74.53
2022-12-24T04:10:37.924Z,74.63
2022-12-24T04:11:37.919Z,74.63
2022-12-24T04:12:37.891Z,74.74
2022-12-24T04:13:37.877Z,74.77
2022-12-24T04:14:37.867Z,74.77
2022-12-24T04:15:37.857Z,74.77
2022-12-24T04:16:37.970Z,74.88
2022-12-24T04:17:37.817Z,74.77
2022-12-24T04:18:37.831Z,74.88
2022-12-24T04:19:37.795Z,74.88
2022-12-24T04:20:37.787Z,74.88
2022-12-24T04:21:37.769Z,75.01
2022-12-24T04:22:37.793Z,74.88
2022-12-24T04:23:37.766Z,74.77
2022-12-24T04:24:37.750Z,74.88
2022-12-24T04:25:37.710Z,74.80
2022-12-24T04:26:37.712Z,74.77
2022-12-24T04:27:37.688Z,74.80
2022-12-24T04:28:37.682Z,74.77
2022-12-24T04:29:37.671Z,74.80
2022-12-24T04:30:37.657Z,74.80
2022-12-24T04:31:37.720Z,74.67
2022-12-24T04:32:37.626Z,74.80
2022-12-24T04:33:37.617Z,74.80
2022-12-24T04:34:37.596Z,74.71
2022-12-24T04:35:37.591Z,74.77
2022-12-24T04:36:37.591Z,74.80
2022-12-24T04:37:37.563Z,74.91
2022-12-24T04:38:37.567Z,74.80
2022-12-24T04:39:37.536Z,74.80
2022-12-24T04:40:37.519Z,74.80
2022-12-24T04:41:37.510Z,74.80
2022-12-24T04:42:37.503Z,74.80
2022-12-24T04:43:37.490Z,74.71
2022-12-24T04:44:37.477Z,74.71
2022-12-24T04:45:37.573Z,74.80
2022-12-24T04:46:37.440Z,74.80
2022-12-24T04:47:37.429Z,74.80
2022-12-24T04:48:37.419Z,74.80
2022-12-24T04:49:37.391Z,74.80
2022-12-24T04:50:37.384Z,74.84
2022-12-24T04:51:37.373Z,74.80
2022-12-24T04:52:37.361Z,74.80
2022-12-24T04:53:37.350Z,74.80
2022-12-24T04:54:37.367Z,74.84
2022-12-24T04:55:37.325Z,74.80
2022-12-24T04:56:37.324Z,74.91
2022-12-24T04:57:37.297Z,74.84
2022-12-24T04:58:37.281Z,74.84
2022-12-24T04:59:37.262Z,74.84
2022-12-24T05:00:37.246Z,74.95
2022-12-24T05:01:37.388Z,74.95
2022-12-24T05:02:37.464Z,74.95
2022-12-24T05:03:37.297Z,74.95
2022-12-24T05:04:37.202Z,74.95
2022-12-24T05:05:37.200Z,75.05
2022-12-24T05:06:37.167Z,74.95
2022-12-24T05:07:37.167Z,74.84
2022-12-24T05:08:37.140Z,74.95
2022-12-24T05:09:37.128Z,74.95
2022-12-24T05:10:37.391Z,74.84
2022-12-24T05:11:37.126Z,74.84
2022-12-24T05:12:37.092Z,74.84
2022-12-24T05:13:44.356Z,74.74
2022-12-24T05:14:38.085Z,74.74
2022-12-24T05:15:37.045Z,74.63
2022-12-24T05:16:37.073Z,74.60
2022-12-24T05:17:37.021Z,74.63
2022-12-24T05:18:37.013Z,74.60
2022-12-24T05:19:36.994Z,74.63
2022-12-24T05:20:37.007Z,74.50
2022-12-24T05:21:36.978Z,74.50
2022-12-24T05:22:36.953Z,74.53
2022-12-24T05:23:36.939Z,74.50
2022-12-24T05:24:36.929Z,74.50
2022-12-24T05:25:36.913Z,74.40
2022-12-24T05:26:36.923Z,74.53
2022-12-24T05:27:36.893Z,74.50
2022-12-24T05:28:36.880Z,74.53
2022-12-24T05:29:36.860Z,74.53
2022-12-24T05:30:36.876Z,74.43
2022-12-24T05:31:36.834Z,74.50
2022-12-24T05:32:36.826Z,74.43
2022-12-24T05:33:36.813Z,74.43
2022-12-24T05:34:36.804Z,74.40
2022-12-24T05:35:36.787Z,74.33
2022-12-24T05:36:36.769Z,74.29
2022-12-24T05:37:36.758Z,74.29
2022-12-24T05:38:36.746Z,74.29
2022-12-24T05:39:36.729Z,74.08
2022-12-24T05:40:36.721Z,74.19
2022-12-24T05:41:36.704Z,74.19
2022-12-24T05:42:36.719Z,74.19
2022-12-24T05:43:36.681Z,74.29
2022-12-24T05:44:36.668Z,74.29
2022-12-24T05:45:36.653Z,74.33
2022-12-24T05:46:36.690Z,74.43
2022-12-24T05:47:42.899Z,74.53
2022-12-24T05:48:37.642Z,74.53
2022-12-24T05:49:36.599Z,74.53
2022-12-24T05:50:36.586Z,74.53
2022-12-24T05:51:36.566Z,74.43
2022-12-24T05:52:36.553Z,74.43
2022-12-24T05:53:36.586Z,74.43
2022-12-24T05:54:36.533Z,74.53
2022-12-24T05:55:36.519Z,74.43
2022-12-24T05:56:36.503Z,74.43
2022-12-24T05:57:36.488Z,74.53
2022-12-24T05:58:36.519Z,74.53
2022-12-24T05:59:36.482Z,74.53
2022-12-24T06:00:36.451Z,74.53
2022-12-24T06:01:36.567Z,74.57
2022-12-24T06:02:36.510Z,74.53
2022-12-24T06:03:36.415Z,74.67
2022-12-24T06:04:36.435Z,74.53
2022-12-24T06:05:36.388Z,74.67
2022-12-24T06:06:36.391Z,74.57
2022-12-24T06:07:36.383Z,74.67
2022-12-24T06:08:36.340Z,74.57
2022-12-24T06:09:36.327Z,74.57
2022-12-24T06:10:36.316Z,74.43
2022-12-24T06:11:36.301Z,74.22
2022-12-24T06:12:36.294Z,74.08
2022-12-24T06:13:36.270Z,73.98
2022-12-24T06:14:36.293Z,73.98
2022-12-24T06:15:36.347Z,73.78
2022-12-24T06:16:36.312Z,73.85
2022-12-24T06:17:36.222Z,73.74
2022-12-24T06:18:36.214Z,73.74
2022-12-24T06:19:36.192Z,73.74
2022-12-24T06:20:36.187Z,73.78
2022-12-24T06:21:36.167Z,73.74
2022-12-24T06:22:36.160Z,73.74
2022-12-24T06:23:36.152Z,73.74
2022-12-24T06:24:36.136Z,73.78
2022-12-24T06:25:36.116Z,73.74
2022-12-24T06:26:36.107Z,73.74
2022-12-24T06:27:36.095Z,73.64
2022-12-24T06:28:36.076Z,73.64
2022-12-24T06:29:36.065Z,73.64
2022-12-24T06:30:36.074Z,73.64
2022-12-24T06:31:36.086Z,73.64
2022-12-24T06:32:36.023Z,73.64
2022-12-24T06:33:36.016Z,73.54
2022-12-24T06:34:36.009Z,73.54
2022-12-24T06:35:35.994Z,73.54
2022-12-24T06:36:35.965Z,73.54
2022-12-24T06:37:35.960Z,73.54
2022-12-24T06:38:35.946Z,73.54
2022-12-24T06:39:35.936Z,73.64
2022-12-24T06:40:35.922Z,73.64
2022-12-24T06:41:35.902Z,73.64
2022-12-24T06:42:35.890Z,73.54
2022-12-24T06:43:35.876Z,73.64
2022-12-24T06:44:35.869Z,73.64
2022-12-24T06:45:35.854Z,73.64
2022-12-24T06:46:35.919Z,73.50
2022-12-24T06:47:35.837Z,73.61
2022-12-24T06:48:35.818Z,73.71
2022-12-24T06:49:35.799Z,73.81
2022-12-24T06:50:35.806Z,73.91
2022-12-24T06:51:35.774Z,74.12
2022-12-24T06:52:35.758Z,74.12
2022-12-24T06:53:35.753Z,74.33
2022-12-24T06:54:35.730Z,74.57
2022-12-24T06:55:35.727Z,74.57
2022-12-24T06:56:35.702Z,74.63
2022-12-24T06:57:35.682Z,74.84
2022-12-24T06:58:35.684Z,74.77
2022-12-24T06:59:35.661Z,74.95
2022-12-24T07:00:35.649Z,75.05
2022-12-24T07:01:35.853Z,75.08
2022-12-24T07:02:35.814Z,75.18
2022-12-24T07:03:35.682Z,75.08
2022-12-24T07:04:35.595Z,75.08
2022-12-24T07:05:35.581Z,75.29
2022-12-24T07:06:35.591Z,75.18
2022-12-24T07:07:35.563Z,75.08
2022-12-24T07:08:35.576Z,75.22
2022-12-24T07:09:35.547Z,75.12
2022-12-24T07:10:35.511Z,75.22
2022-12-24T07:11:35.496Z,75.32
2022-12-24T07:12:35.488Z,75.22
2022-12-24T07:13:35.480Z,75.22
2022-12-24T07:14:35.460Z,75.26
2022-12-24T07:15:35.442Z,75.36
2022-12-24T07:16:35.628Z,75.36
2022-12-24T07:17:35.528Z,75.36
2022-12-24T07:18:35.443Z,75.36
2022-12-24T07:19:35.396Z,75.46
2022-12-24T07:20:35.383Z,75.46
2022-12-24T07:21:35.371Z,75.36
2022-12-24T07:22:35.390Z,75.46
2022-12-24T07:23:35.351Z,75.46
2022-12-24T07:24:35.327Z,75.39
2022-12-24T07:25:35.307Z,75.36
2022-12-24T07:26:35.311Z,75.05
2022-12-24T07:27:35.291Z,75.05
2022-12-24T07:28:35.278Z,75.05
2022-12-24T07:29:35.257Z,74.95
2022-12-24T07:30:35.247Z,74.95
2022-12-24T07:31:35.322Z,74.84
2022-12-24T07:32:35.229Z,74.95
2022-12-24T07:33:35.211Z,74.84
2022-12-24T07:34:35.215Z,74.74
2022-12-24T07:35:35.183Z,74.74
2022-12-24T07:36:35.164Z,74.63
2022-12-24T07:37:35.157Z,74.63
2022-12-24T07:38:35.201Z,74.63
2022-12-24T07:39:35.129Z,74.63
2022-12-24T07:40:35.134Z,74.63
2022-12-24T07:41:41.566Z,74.67
2022-12-24T07:42:36.114Z,74.74
2022-12-24T07:43:35.076Z,74.74
2022-12-24T07:44:35.114Z,74.74
2022-12-24T07:45:35.046Z,74.77
2022-12-24T07:46:35.116Z,74.98
2022-12-24T07:47:35.039Z,74.88
2022-12-24T07:48:35.017Z,74.88
2022-12-24T07:49:35.051Z,74.88
2022-12-24T07:50:35.006Z,74.84
2022-12-24T07:51:34.965Z,74.88
2022-12-24T07:52:34.984Z,74.84
2022-12-24T07:53:34.954Z,74.74
2022-12-24T07:54:34.930Z,74.77
2022-12-24T07:55:34.917Z,74.74
2022-12-24T07:56:34.903Z,74.63
2022-12-24T07:57:34.903Z,74.57
2022-12-24T07:58:34.871Z,74.63
2022-12-24T07:59:34.885Z,74.53
2022-12-24T08:00:34.860Z,74.74
2022-12-24T08:01:35.025Z,74.63
2022-12-24T08:02:35.049Z,74.63
2022-12-24T08:03:34.918Z,74.63
2022-12-24T08:04:34.798Z,74.63
2022-12-24T08:05:34.784Z,74.63
2022-12-24T08:06:34.794Z,74.63
2022-12-24T08:07:34.759Z,74.63
2022-12-24T08:08:34.736Z,74.63
2022-12-24T08:09:34.728Z,74.77
2022-12-24T08:10:34.722Z,74.63
2022-12-24T08:11:34.694Z,74.63
2022-12-24T08:12:34.717Z,74.63
2022-12-24T08:13:34.709Z,74.50
2022-12-24T08:14:34.658Z,74.53
2022-12-24T08:15:34.648Z,74.43
2022-12-24T08:16:34.682Z,74.40
2022-12-24T08:17:34.635Z,74.40
2022-12-24T08:18:34.603Z,74.29
2022-12-24T08:19:34.590Z,74.29
2022-12-24T08:20:34.573Z,74.29
2022-12-24T08:21:34.565Z,74.19
2022-12-24T08:22:34.576Z,74.19
2022-12-24T08:23:34.562Z,74.19
2022-12-24T08:24:34.530Z,74.19
2022-12-24T08:25:34.512Z,74.19
2022-12-24T08:26:34.503Z,74.05
2022-12-24T08:27:34.487Z,74.19
2022-12-24T08:28:34.470Z,74.08
2022-12-24T08:29:34.487Z,74.19
2022-12-24T08:30:34.454Z,74.05
2022-12-24T08:31:34.472Z,74.19
2022-12-24T08:32:34.415Z,73.98
2022-12-24T08:33:34.404Z,74.05
2022-12-24T08:34:34.392Z,74.05
2022-12-24T08:35:34.373Z,73.95
2022-12-24T08:36:34.360Z,74.05
2022-12-24T08:37:34.362Z,73.95
2022-12-24T08:38:34.371Z,73.95
2022-12-24T08:39:34.331Z,73.95
2022-12-24T08:40:34.327Z,73.85
2022-12-24T08:41:34.301Z,73.81
2022-12-24T08:42:34.367Z,73.71
2022-12-24T08:43:34.274Z,73.85
2022-12-24T08:44:34.255Z,73.71
2022-12-24T08:45:39.895Z,73.71
2022-12-24T08:46:35.291Z,73.71
2022-12-24T08:47:34.213Z,73.61
2022-12-24T08:48:34.242Z,73.61
2022-12-24T08:49:34.188Z,73.61
2022-12-24T08:50:34.173Z,73.50
2022-12-24T08:51:34.169Z,73.50
2022-12-24T08:52:34.145Z,73.47
2022-12-24T08:53:34.135Z,73.36
2022-12-24T08:54:34.147Z,73.36
2022-12-24T08:55:34.112Z,73.47
2022-12-24T08:56:34.098Z,73.36
2022-12-24T08:57:34.083Z,73.26
2022-12-24T08:58:34.074Z,73.26
2022-12-24T08:59:34.055Z,73.26
2022-12-24T09:00:34.075Z,73.26
2022-12-24T09:01:34.211Z,73.16
2022-12-24T09:02:34.254Z,73.16
2022-12-24T09:03:34.090Z,73.13
2022-12-24T09:04:33.993Z,73.02
2022-12-24T09:05:33.985Z,73.02
2022-12-24T09:06:33.980Z,73.02
2022-12-24T09:07:33.963Z,72.92
2022-12-24T09:08:33.931Z,72.78
2022-12-24T09:09:37.881Z,72.78
2022-12-24T09:10:33.926Z,72.68
2022-12-24T09:11:33.897Z,72.99
2022-12-24T09:12:33.880Z,72.78
2022-12-24T09:13:33.878Z,72.75
2022-12-24T09:14:33.849Z,72.65
2022-12-24T09:15:33.839Z,72.75
2022-12-24T09:16:33.864Z,72.75
2022-12-24T09:17:33.812Z,72.85
2022-12-24T09:18:33.811Z,72.85
2022-12-24T09:19:33.793Z,73.06
2022-12-24T09:20:33.775Z,73.06
2022-12-24T09:21:33.761Z,73.02
2022-12-24T09:22:33.752Z,73.16
2022-12-24T09:23:33.769Z,73.36
2022-12-24T09:24:33.727Z,73.36
2022-12-24T09:25:33.711Z,73.27
2022-12-24T09:26:33.708Z,73.23
2022-12-24T09:27:33.718Z,73.54
2022-12-24T09:28:33.662Z,73.54
2022-12-24T09:29:33.647Z,73.61
2022-12-24T09:30:33.641Z,73.40
2022-12-24T09:31:33.769Z,74.05
2022-12-24T09:32:33.630Z,74.12
2022-12-24T09:33:33.614Z,74.02
2022-12-24T09:34:33.610Z,73.81
2022-12-24T09:35:33.577Z,74.02
2022-12-24T09:36:33.582Z,73.68
2022-12-24T09:37:33.550Z,74.19
2022-12-24T09:38:33.528Z,74.29
2022-12-24T09:39:33.566Z,75.01
2022-12-24T09:40:33.507Z,74.91
2022-12-24T09:41:33.499Z,75.15
2022-12-24T09:42:33.501Z,75.42
2022-12-24T09:43:33.531Z,74.80
2022-12-24T09:44:33.467Z,75.21
2022-12-24T09:45:33.506Z,75.42
2022-12-24T09:46:33.513Z,74.91
2022-12-24T09:47:33.421Z,75.18
2022-12-24T09:48:33.406Z,74.66
2022-12-24T09:49:33.393Z,74.87
2022-12-24T09:50:33.371Z,74.98
2022-12-24T09:51:33.352Z,74.87
2022-12-24T09:52:33.339Z,75.76
2022-12-24T09:53:33.331Z,75.28
2022-12-24T09:54:33.314Z,75.49
2022-12-24T09:55:33.309Z,76.31
2022-12-24T09:56:33.289Z,76.58
2022-12-24T09:57:33.275Z,77.13
2022-12-24T09:58:33.290Z,79.42
2022-12-24T09:59:33.252Z,78.39
2022-12-24T10:00:33.244Z,77.95
2022-12-24T10:01:33.341Z,78.25
2022-12-24T10:02:33.381Z,77.58
2022-12-24T10:03:33.301Z,77.17
2022-12-24T10:04:33.177Z,77.13
2022-12-24T10:05:33.188Z,77.58
2022-12-24T10:06:33.149Z,77.54
2022-12-24T10:07:33.145Z,78.46
2022-12-24T10:08:33.129Z,79.22
2022-12-24T10:09:33.128Z,78.16
2022-12-24T10:10:33.101Z,78.67
2022-12-24T10:11:33.092Z,78.77
2022-12-24T10:12:33.085Z,78.94
2022-12-24T10:13:33.065Z,78.83
2022-12-24T10:14:33.081Z,77.91
2022-12-24T10:15:33.034Z,77.98
2022-12-24T10:16:33.084Z,80.03
2022-12-24T10:17:33.007Z,77.87
2022-12-24T10:18:33.002Z,78.76
2022-12-24T10:19:32.992Z,80.16
2022-12-24T10:20:32.967Z,81.86
2022-12-24T10:21:32.963Z,83.81
2022-12-24T10:22:32.951Z,89.64
2022-12-24T10:23:32.956Z,87.08
2022-12-24T10:24:32.916Z,92.56
2022-12-24T10:25:32.900Z,89.74
2022-12-24T10:26:32.893Z,91.03
2022-12-24T10:27:32.881Z,89.90
2022-12-24T10:28:32.866Z,95.94
2022-12-24T10:29:32.860Z,97.98
2022-12-24T10:30:32.876Z,93.99
2022-12-24T10:31:32.824Z,93.38
2022-12-24T10:32:32.810Z,93.24
2022-12-24T10:33:32.805Z,93.85
2022-12-24T10:34:32.799Z,98.24
2022-12-24T10:35:32.772Z,98.04
2022-12-24T10:36:32.759Z,98.04
2022-12-24T10:37:32.744Z,97.38
2022-12-24T10:38:32.732Z,98.30
2022-12-24T10:39:32.716Z,99.99
2022-12-24T10:40:32.722Z,99.63
2022-12-24T10:41:32.841Z,99.63
2022-12-24T10:42:32.677Z,97.63
2022-12-24T10:43:32.672Z,97.53
2022-12-24T10:44:32.671Z,98.35
2022-12-24T10:45:32.640Z,98.14
2022-12-24T10:46:32.715Z,98.14
2022-12-24T10:47:32.610Z,96.61
2022-12-24T10:48:32.594Z,99.16
2022-12-24T10:49:32.591Z,98.96
2022-12-24T10:50:32.570Z,98.04
2022-12-24T10:51:32.562Z,99.99
2022-12-24T10:52:32.548Z,97.49
2022-12-24T10:53:32.534Z,99.32
2022-12-24T10:54:32.515Z,97.74
2022-12-24T10:55:32.511Z,98.40
2022-12-24T10:56:32.487Z,98.91
2022-12-24T10:57:32.479Z,98.77
2022-12-24T10:58:32.468Z,98.15
2022-12-24T10:59:32.461Z,99.79
2022-12-24T11:00:36.148Z,99.18
2022-12-24T11:01:32.562Z,99.07
2022-12-24T11:02:32.639Z,99.68
2022-12-24T11:03:32.537Z,98.97
2022-12-24T11:04:32.388Z,97.33
2022-12-24T11:05:32.375Z,97.89
2022-12-24T11:06:32.357Z,99.99
2022-12-24T11:07:32.353Z,98.86
2022-12-24T11:08:32.334Z,97.24
2022-12-24T11:09:32.319Z,99.52
2022-12-24T11:10:32.308Z,99.07
2022-12-24T11:11:32.291Z,98.77
2022-12-24T11:12:32.284Z,99.07
2022-12-24T11:13:39.912Z,99.48
2022-12-24T11:14:33.282Z,98.56
2022-12-24T11:15:32.323Z,99.13
2022-12-24T11:16:32.388Z,98.77
2022-12-24T11:17:32.216Z,98.72
2022-12-24T11:18:32.230Z,99.33
2022-12-24T11:19:32.199Z,97.70
2022-12-24T11:20:32.172Z,99.64
2022-12-24T11:21:32.366Z,98.31
2022-12-24T11:22:32.174Z,99.08
2022-12-24T11:23:32.134Z,98.06
2022-12-24T11:24:32.116Z,99.08
2022-12-24T11:25:32.104Z,98.47
2022-12-24T11:26:32.086Z,98.16
2022-12-24T11:27:32.082Z,97.86
2022-12-24T11:28:32.070Z,99.49
2022-12-24T11:29:32.055Z,97.75
2022-12-24T11:30:32.071Z,99.39
2022-12-24T11:31:32.067Z,98.63
2022-12-24T11:32:32.007Z,98.58
2022-12-24T11:33:32.009Z,97.88
2022-12-24T11:34:32.037Z,96.51
2022-12-24T11:35:31.982Z,98.24
2022-12-24T11:36:31.958Z,97.53
2022-12-24T11:37:31.953Z,99.16
2022-12-24T11:38:31.932Z,95.94
2022-12-24T11:39:31.917Z,97.02
2022-12-24T11:40:31.902Z,97.06
2022-12-24T11:41:31.889Z,97.06
2022-12-24T11:42:31.898Z,98.44
2022-12-24T11:43:31.861Z,97.38
2022-12-24T11:44:31.850Z,98.39
2022-12-24T11:45:31.844Z,96.92
2022-12-24T11:46:31.846Z,96.94
2022-12-24T11:47:31.809Z,88.32
2022-12-24T11:48:31.808Z,86.88
2022-12-24T11:49:31.799Z,90.36
2022-12-24T11:50:31.858Z,92.24
2022-12-24T11:51:31.756Z,89.54
2022-12-24T11:52:31.751Z,92.93
2022-12-24T11:53:31.731Z,95.41
2022-12-24T11:54:31.719Z,93.28
2022-12-24T11:55:31.904Z,94.74
2022-12-24T11:56:31.685Z,94.85
2022-12-24T11:57:31.699Z,94.89
2022-12-24T11:58:31.668Z,95.66
2022-12-24T11:59:31.652Z,96.37
2022-12-24T12:00:31.652Z,92.47
2022-12-24T12:01:31.669Z,92.42
2022-12-24T12:02:31.637Z,94.56
2022-12-24T12:03:31.682Z,96.03
2022-12-24T12:04:31.824Z,91.94
2022-12-24T12:05:31.795Z,81.43
2022-12-24T12:06:31.585Z,82.83
2022-12-24T12:07:31.565Z,83.07
2022-12-24T12:08:31.531Z,74.69
2022-12-24T12:09:31.614Z,75.78
2022-12-24T12:10:31.510Z,71.53
2022-12-24T12:11:31.488Z,80.15
2022-12-24T12:12:31.497Z,73.79
2022-12-24T12:13:31.470Z,74.59
2022-12-24T12:14:31.448Z,70.42
2022-12-24T12:15:31.433Z,74.90
2022-12-24T12:16:31.485Z,65.01
2022-12-24T12:17:31.410Z,71.47
2022-12-24T12:18:31.396Z,67.27
2022-12-24T12:19:31.382Z,71.44
2022-12-24T12:20:31.395Z,69.75
2022-12-24T12:21:31.354Z,66.69
2022-12-24T12:22:31.370Z,68.51
2022-12-24T12:23:31.328Z,69.21
2022-12-24T12:24:32.576Z,68.81
2022-12-24T12:25:31.303Z,71.06
2022-12-24T12:26:31.294Z,69.15
2022-12-24T12:27:31.309Z,65.55
2022-12-24T12:28:31.268Z,67.76
2022-12-24T12:29:31.249Z,69.89
2022-12-24T12:30:31.232Z,73.18
2022-12-24T12:31:31.299Z,76.58
2022-12-24T12:32:31.259Z,69.59
2022-12-24T12:33:31.195Z,68.10
2022-12-24T12:34:31.181Z,68.17
2022-12-24T12:35:31.174Z,66.16
2022-12-24T12:36:31.152Z,70.97
2022-12-24T12:37:31.137Z,69.99
2022-12-24T12:38:31.155Z,65.42
2022-12-24T12:39:31.127Z,65.22
2022-12-24T12:40:31.110Z,67.51
2022-12-24T12:41:31.102Z,63.59
2022-12-24T12:42:31.076Z,68.95
2022-12-24T12:43:31.061Z,65.64
2022-12-24T12:44:31.058Z,66.94
2022-12-24T12:45:31.038Z,67.91
2022-12-24T12:46:31.117Z,64.04
2022-12-24T12:47:31.017Z,61.15
2022-12-24T12:48:31.008Z,62.96
2022-12-24T12:49:30.988Z,65.13
2022-12-24T12:50:30.971Z,65.16
2022-12-24T12:51:30.966Z,65.89
2022-12-24T12:52:30.959Z,70.22